sensor_id;sensor_type;location;lat;lon;timestamp;P1;P2;P0
73832;PMS7003;62179;48.444;-4.464;2022-10-16T09:52:04;0.25;0.25;0.00
73832;PMS7003;62179;48.444;-4.464;2022-10-16T09:54:30;2.00;1.00;0.00
73832;PMS7003;62179;48.444;-4.464;2022-10-16T09:57:10;2.50;1.00;1.00
73832;PMS7003;62179;48.444;-4.464;2022-10-16T09:59:45;2.00;1.00;1.00
73832;PMS7003;62179;48.444;-4.464;2022-10-16T10:02:12;1.00;0.25;0.00
73832;PMS7003;62179;48.444;-4.464;2022-10-16T10:04:41;2.00;1.00;0.00
73832;PMS7003;62179;48.444;-4.464;2022-10-16T10:07:32;1.25;0.75;0.00
73832;PMS7003;62179;48.444;-4.464;2022-10-16T10:10:04;1.75;1.75;0.75
73832;PMS7003;62179;48.444;-4.464;2022-10-16T10:12:32;0.00;0.00;0.00
73832;PMS7003;62179;48.444;-4.464;2022-10-16T10:15:18;1.00;1.00;0.00
73832;PMS7003;62179;48.444;-4.464;2022-10-16T10:17:49;1.75;1.00;0.00
73832;PMS7003;62179;48.444;-4.464;2022-10-16T10:23:00;2.75;2.00;1.00
73832;PMS7003;62179;48.444;-4.464;2022-10-16T10:31:30;0.50;0.50;0.00
73832;PMS7003;62179;48.444;-4.464;2022-10-16T10:34:23;0.75;0.75;0.00
73832;PMS7003;62179;48.444;-4.464;2022-10-16T10:37:04;1.25;0.75;0.00
73832;PMS7003;62179;48.444;-4.464;2022-10-16T10:47:26;0.00;0.00;0.00
73832;PMS7003;62179;48.444;-4.464;2022-10-16T10:50:10;1.00;1.00;1.00
73832;PMS7003;62179;48.444;-4.464;2022-10-16T10:58:07;1.00;1.00;0.50
73832;PMS7003;62179;48.444;-4.464;2022-10-16T11:06:28;1.00;1.00;1.00
73832;PMS7003;62179;48.444;-4.464;2022-10-16T11:09:17;1.25;1.25;1.00
73832;PMS7003;62179;48.444;-4.464;2022-10-16T11:14:19;4.25;2.00;1.00
73832;PMS7003;62179;48.444;-4.464;2022-10-16T11:19:32;1.75;1.75;1.75
73832;PMS7003;62179;48.444;-4.464;2022-10-16T11:38:25;2.25;1.00;1.00
73832;PMS7003;62179;48.444;-4.464;2022-10-16T11:41:00;1.00;1.00;0.75
73832;PMS7003;62179;48.444;-4.464;2022-10-16T11:43:37;0.00;0.00;0.00
73832;PMS7003;62179;48.444;-4.464;2022-10-16T11:46:24;1.00;1.00;1.00
73832;PMS7003;62179;48.444;-4.464;2022-10-16T11:51:38;2.00;2.00;1.00
73832;PMS7003;62179;48.444;-4.464;2022-10-16T11:54:14;0.00;0.00;0.00
73832;PMS7003;62179;48.444;-4.464;2022-10-16T11:56:46;0.75;0.00;0.00
73832;PMS7003;62179;48.444;-4.464;2022-10-16T12:01:49;0.00;0.00;0.00
73832;PMS7003;62179;48.444;-4.464;2022-10-16T12:04:26;0.75;0.00;0.00
73832;PMS7003;62179;48.444;-4.464;2022-10-16T12:07:03;0.00;0.00;0.00
73832;PMS7003;62179;48.444;-4.464;2022-10-16T12:09:33;0.00;0.00;0.00
73832;PMS7003;62179;48.444;-4.464;2022-10-16T12:12:02;0.00;0.00;0.00
73832;PMS7003;62179;48.444;-4.464;2022-10-16T12:14:35;0.00;0.00;0.00
73832;PMS7003;62179;48.444;-4.464;2022-10-16T12:17:03;0.00;0.00;0.00
73832;PMS7003;62179;48.444;-4.464;2022-10-16T12:19:59;0.00;0.00;0.00
73832;PMS7003;62179;48.444;-4.464;2022-10-16T12:22:27;0.00;0.00;0.00
73832;PMS7003;62179;48.444;-4.464;2022-10-16T12:24:55;0.00;0.00;0.00
73832;PMS7003;62179;48.444;-4.464;2022-10-16T12:27:31;2.00;0.00;0.00
73832;PMS7003;62179;48.444;-4.464;2022-10-16T12:30:01;0.00;0.00;0.00
73832;PMS7003;62179;48.444;-4.464;2022-10-16T12:32:31;0.00;0.00;0.00
73832;PMS7003;62179;48.444;-4.464;2022-10-16T12:34:59;1.25;0.00;0.00
73832;PMS7003;62179;48.444;-4.464;2022-10-16T12:37:28;0.50;0.50;0.00
73832;PMS7003;62179;48.444;-4.464;2022-10-16T12:40:15;0.75;0.75;0.00
73832;PMS7003;62179;48.444;-4.464;2022-10-16T12:42:49;0.00;0.00;0.00
73832;PMS7003;62179;48.444;-4.464;2022-10-16T12:47:59;0.00;0.00;0.00
73832;PMS7003;62179;48.444;-4.464;2022-10-16T12:50:36;2.00;0.00;0.00
73832;PMS7003;62179;48.444;-4.464;2022-10-16T12:53:04;0.00;0.00;0.00
73832;PMS7003;62179;48.444;-4.464;2022-10-16T12:55:48;0.00;0.00;0.00
73832;PMS7003;62179;48.444;-4.464;2022-10-16T13:01:40;2.00;2.00;2.00
73832;PMS7003;62179;48.444;-4.464;2022-10-16T13:04:34;1.00;1.00;0.00
73832;PMS7003;62179;48.444;-4.464;2022-10-16T13:16:28;0.00;0.00;0.00
73832;PMS7003;62179;48.444;-4.464;2022-10-16T13:19:14;0.00;0.00;0.00
73832;PMS7003;62179;48.444;-4.464;2022-10-16T13:29:51;1.00;1.00;0.75
73832;PMS7003;62179;48.444;-4.464;2022-10-16T13:32:20;2.50;2.50;1.00
73832;PMS7003;62179;48.444;-4.464;2022-10-16T13:34:47;2.25;0.75;0.50
73832;PMS7003;62179;48.444;-4.464;2022-10-16T13:37:21;1.00;1.00;0.50
73832;PMS7003;62179;48.444;-4.464;2022-10-16T13:39:48;2.75;2.75;1.00
73832;PMS7003;62179;48.444;-4.464;2022-10-16T13:44:52;2.50;1.00;1.00
73832;PMS7003;62179;48.444;-4.464;2022-10-16T13:47:22;1.50;1.50;1.00
73832;PMS7003;62179;48.444;-4.464;2022-10-16T13:52:31;3.00;1.00;1.00
73832;PMS7003;62179;48.444;-4.464;2022-10-16T13:54:57;1.50;1.50;1.00
73832;PMS7003;62179;48.444;-4.464;2022-10-16T13:57:23;2.00;2.00;1.00
73832;PMS7003;62179;48.444;-4.464;2022-10-16T13:59:49;2.00;2.00;1.00
73832;PMS7003;62179;48.444;-4.464;2022-10-16T14:04:51;1.50;0.25;0.00
73832;PMS7003;62179;48.444;-4.464;2022-10-16T14:07:25;2.50;2.50;1.00
73832;PMS7003;62179;48.444;-4.464;2022-10-16T14:09:53;2.00;2.00;1.00
73832;PMS7003;62179;48.444;-4.464;2022-10-16T14:12:20;1.75;0.25;0.00
73832;PMS7003;62179;48.444;-4.464;2022-10-16T14:14:47;1.75;1.75;1.00
73832;PMS7003;62179;48.444;-4.464;2022-10-16T14:17:19;4.25;2.50;2.00
73832;PMS7003;62179;48.444;-4.464;2022-10-16T14:19:53;2.50;2.50;1.50
73832;PMS7003;62179;48.444;-4.464;2022-10-16T14:24:55;2.00;1.00;0.75
73832;PMS7003;62179;48.444;-4.464;2022-10-16T14:27:26;1.25;1.25;1.00
73832;PMS7003;62179;48.444;-4.464;2022-10-16T14:32:32;0.25;0.25;0.25
73832;PMS7003;62179;48.444;-4.464;2022-10-16T14:34:57;2.50;1.00;0.75
73832;PMS7003;62179;48.444;-4.464;2022-10-16T14:37:24;4.25;2.00;0.75
73832;PMS7003;62179;48.444;-4.464;2022-10-16T14:39:54;2.00;2.00;1.00
73832;PMS7003;62179;48.444;-4.464;2022-10-16T14:42:21;1.00;1.00;0.25
73832;PMS7003;62179;48.444;-4.464;2022-10-16T14:44:53;1.25;1.25;1.00
73832;PMS7003;62179;48.444;-4.464;2022-10-16T14:47:24;1.00;1.00;1.00
73832;PMS7003;62179;48.444;-4.464;2022-10-16T14:49:51;2.00;2.00;1.25
73832;PMS7003;62179;48.444;-4.464;2022-10-16T14:52:20;1.75;1.00;1.00
73832;PMS7003;62179;48.444;-4.464;2022-10-16T14:54:49;3.00;2.00;1.75
73832;PMS7003;62179;48.444;-4.464;2022-10-16T14:57:18;2.25;2.25;1.00
73832;PMS7003;62179;48.444;-4.464;2022-10-16T14:59:45;1.00;1.00;1.00
73832;PMS7003;62179;48.444;-4.464;2022-10-16T15:04:47;1.50;1.50;0.00
73832;PMS7003;62179;48.444;-4.464;2022-10-16T15:07:13;1.50;1.00;1.00
73832;PMS7003;62179;48.444;-4.464;2022-10-16T15:09:38;3.00;1.00;0.50
73832;PMS7003;62179;48.444;-4.464;2022-10-16T15:12:04;4.75;2.00;2.00
73832;PMS7003;62179;48.444;-4.464;2022-10-16T15:14:29;1.00;1.00;1.00
73832;PMS7003;62179;48.444;-4.464;2022-10-16T15:16:55;1.25;1.25;1.00
73832;PMS7003;62179;48.444;-4.464;2022-10-16T15:19:20;5.25;1.75;1.00
73832;PMS7003;62179;48.444;-4.464;2022-10-16T15:21:46;1.75;1.75;1.00
73832;PMS7003;62179;48.444;-4.464;2022-10-16T15:24:12;1.50;1.50;1.00
73832;PMS7003;62179;48.444;-4.464;2022-10-16T15:26:39;5.25;2.50;1.50
73832;PMS7003;62179;48.444;-4.464;2022-10-16T15:29:05;3.25;2.00;1.50
73832;PMS7003;62179;48.444;-4.464;2022-10-16T15:31:30;4.25;2.50;2.00
73832;PMS7003;62179;48.444;-4.464;2022-10-16T15:33:56;5.25;3.25;2.00
73832;PMS7003;62179;48.444;-4.464;2022-10-16T15:36:29;4.00;1.00;0.50
73832;PMS7003;62179;48.444;-4.464;2022-10-16T15:38:58;2.00;2.00;2.00
73832;PMS7003;62179;48.444;-4.464;2022-10-16T15:41:24;4.00;2.75;1.75
73832;PMS7003;62179;48.444;-4.464;2022-10-16T15:43:50;4.75;3.50;2.00
73832;PMS7003;62179;48.444;-4.464;2022-10-16T15:46:20;5.00;2.00;1.75
73832;PMS7003;62179;48.444;-4.464;2022-10-16T15:48:47;3.75;2.50;1.00
73832;PMS7003;62179;48.444;-4.464;2022-10-16T15:51:14;4.50;1.50;1.25
73832;PMS7003;62179;48.444;-4.464;2022-10-16T15:53:40;3.25;1.75;1.00
73832;PMS7003;62179;48.444;-4.464;2022-10-16T15:56:07;4.25;3.00;2.00
73832;PMS7003;62179;48.444;-4.464;2022-10-16T15:58:34;3.00;3.00;1.00
73832;PMS7003;62179;48.444;-4.464;2022-10-16T16:01:00;5.25;3.00;2.00
73832;PMS7003;62179;48.444;-4.464;2022-10-16T16:03:27;1.00;1.00;1.00
73832;PMS7003;62179;48.444;-4.464;2022-10-16T16:05:53;1.75;1.75;1.00
73832;PMS7003;62179;48.444;-4.464;2022-10-16T16:08:19;2.25;1.25;1.00
73832;PMS7003;62179;48.444;-4.464;2022-10-16T16:10:44;1.50;1.50;1.00
73832;PMS7003;62179;48.444;-4.464;2022-10-16T16:13:10;1.00;0.00;0.00
73832;PMS7003;62179;48.444;-4.464;2022-10-16T16:15:38;2.00;1.00;1.00
73832;PMS7003;62179;48.444;-4.464;2022-10-16T16:18:05;3.00;2.00;1.00
73832;PMS7003;62179;48.444;-4.464;2022-10-16T16:20:31;6.50;3.25;1.75
73832;PMS7003;62179;48.444;-4.464;2022-10-16T16:22:57;3.25;2.75;1.50
73832;PMS7003;62179;48.444;-4.464;2022-10-16T16:25:22;4.50;1.75;1.50
73832;PMS7003;62179;48.444;-4.464;2022-10-16T16:27:48;3.50;3.50;2.00
73832;PMS7003;62179;48.444;-4.464;2022-10-16T16:30:13;2.00;2.00;1.00
73832;PMS7003;62179;48.444;-4.464;2022-10-16T16:32:39;1.25;1.25;1.00
73832;PMS7003;62179;48.444;-4.464;2022-10-16T16:35:04;2.50;1.75;1.00
73832;PMS7003;62179;48.444;-4.464;2022-10-16T16:37:30;3.00;3.00;0.50
73832;PMS7003;62179;48.444;-4.464;2022-10-16T16:39:56;2.00;2.00;1.50
73832;PMS7003;62179;48.444;-4.464;2022-10-16T16:42:23;3.00;2.75;2.00
73832;PMS7003;62179;48.444;-4.464;2022-10-16T16:44:50;5.25;2.75;1.25
73832;PMS7003;62179;48.444;-4.464;2022-10-16T16:47:15;3.75;3.00;2.00
73832;PMS7003;62179;48.444;-4.464;2022-10-16T16:49:41;3.75;3.25;1.25
73832;PMS7003;62179;48.444;-4.464;2022-10-16T16:52:06;3.00;3.00;2.00
73832;PMS7003;62179;48.444;-4.464;2022-10-16T16:54:32;3.50;1.75;1.00
73832;PMS7003;62179;48.444;-4.464;2022-10-16T16:56:57;1.00;1.00;0.00
73832;PMS7003;62179;48.444;-4.464;2022-10-16T16:59:23;4.50;2.25;2.00
73832;PMS7003;62179;48.444;-4.464;2022-10-16T17:01:48;2.00;2.00;1.00
73832;PMS7003;62179;48.444;-4.464;2022-10-16T17:04:14;4.75;2.75;2.00
73832;PMS7003;62179;48.444;-4.464;2022-10-16T17:06:40;4.00;4.00;1.75
73832;PMS7003;62179;48.444;-4.464;2022-10-16T17:09:06;3.00;3.00;2.00
73832;PMS7003;62179;48.444;-4.464;2022-10-16T17:11:32;2.75;2.75;2.00
73832;PMS7003;62179;48.444;-4.464;2022-10-16T17:13:59;5.00;3.75;2.00
73832;PMS7003;62179;48.444;-4.464;2022-10-16T17:16:27;1.00;1.00;1.00
73832;PMS7003;62179;48.444;-4.464;2022-10-16T17:18:54;4.25;2.75;2.00
73832;PMS7003;62179;48.444;-4.464;2022-10-16T17:21:20;4.00;3.00;1.00
73832;PMS7003;62179;48.444;-4.464;2022-10-16T17:23:46;3.00;2.00;1.00
73832;PMS7003;62179;48.444;-4.464;2022-10-16T17:26:13;3.75;3.25;2.00
73832;PMS7003;62179;48.444;-4.464;2022-10-16T17:28:40;7.00;5.00;2.25
73832;PMS7003;62179;48.444;-4.464;2022-10-16T17:31:16;5.25;4.25;2.75
73832;PMS7003;62179;48.444;-4.464;2022-10-16T17:33:43;6.50;4.50;3.00
73832;PMS7003;62179;48.444;-4.464;2022-10-16T17:36:09;3.00;3.00;2.00
73832;PMS7003;62179;48.444;-4.464;2022-10-16T17:38:36;2.75;2.25;1.25
73832;PMS7003;62179;48.444;-4.464;2022-10-16T17:41:21;5.75;3.75;2.00
73832;PMS7003;62179;48.444;-4.464;2022-10-16T17:43:48;5.00;3.75;2.00
73832;PMS7003;62179;48.444;-4.464;2022-10-16T17:46:16;4.00;3.00;2.00
73832;PMS7003;62179;48.444;-4.464;2022-10-16T17:48:44;3.00;3.00;2.25
73832;PMS7003;62179;48.444;-4.464;2022-10-16T17:51:12;5.50;4.75;2.25
73832;PMS7003;62179;48.444;-4.464;2022-10-16T17:53:39;5.00;4.00;3.00
73832;PMS7003;62179;48.444;-4.464;2022-10-16T17:56:06;6.50;5.00;1.75
73832;PMS7003;62179;48.444;-4.464;2022-10-16T17:58:33;7.75;5.25;2.00
73832;PMS7003;62179;48.444;-4.464;2022-10-16T18:00:58;5.00;3.50;2.00
73832;PMS7003;62179;48.444;-4.464;2022-10-16T18:03:24;3.25;2.75;1.00
73832;PMS7003;62179;48.444;-4.464;2022-10-16T18:05:51;5.50;2.75;2.00
73832;PMS7003;62179;48.444;-4.464;2022-10-16T18:08:17;5.75;4.00;3.00
73832;PMS7003;62179;48.444;-4.464;2022-10-16T18:10:46;7.25;5.25;3.25
73832;PMS7003;62179;48.444;-4.464;2022-10-16T18:13:13;6.50;4.50;2.00
73832;PMS7003;62179;48.444;-4.464;2022-10-16T18:15:39;6.50;5.75;3.00
73832;PMS7003;62179;48.444;-4.464;2022-10-16T18:18:04;7.25;3.75;2.00
73832;PMS7003;62179;48.444;-4.464;2022-10-16T18:20:30;10.00;3.00;1.00
73832;PMS7003;62179;48.444;-4.464;2022-10-16T18:22:56;8.00;5.00;2.00
73832;PMS7003;62179;48.444;-4.464;2022-10-16T18:25:21;8.50;5.50;2.25
73832;PMS7003;62179;48.444;-4.464;2022-10-16T18:27:46;8.00;5.50;2.00
73832;PMS7003;62179;48.444;-4.464;2022-10-16T18:30:12;9.25;7.00;3.00
73832;PMS7003;62179;48.444;-4.464;2022-10-16T18:32:40;2.50;2.50;1.50
73832;PMS7003;62179;48.444;-4.464;2022-10-16T18:35:05;7.00;4.00;3.00
73832;PMS7003;62179;48.444;-4.464;2022-10-16T18:37:33;7.75;3.00;2.25
73832;PMS7003;62179;48.444;-4.464;2022-10-16T18:39:59;5.50;4.00;3.00
73832;PMS7003;62179;48.444;-4.464;2022-10-16T18:42:24;6.50;3.25;2.00
73832;PMS7003;62179;48.444;-4.464;2022-10-16T18:44:50;5.75;3.50;2.00
73832;PMS7003;62179;48.444;-4.464;2022-10-16T18:47:15;6.00;4.00;2.00
73832;PMS7003;62179;48.444;-4.464;2022-10-16T18:49:41;6.00;3.50;2.00
73832;PMS7003;62179;48.444;-4.464;2022-10-16T18:52:08;4.00;3.50;1.25
73832;PMS7003;62179;48.444;-4.464;2022-10-16T18:54:33;7.00;4.00;2.00
73832;PMS7003;62179;48.444;-4.464;2022-10-16T18:57:01;4.00;4.00;2.00
73832;PMS7003;62179;48.444;-4.464;2022-10-16T18:59:27;9.25;6.25;2.50
73832;PMS7003;62179;48.444;-4.464;2022-10-16T19:01:52;6.50;3.00;2.00
73832;PMS7003;62179;48.444;-4.464;2022-10-16T19:04:18;5.75;4.00;2.00
73832;PMS7003;62179;48.444;-4.464;2022-10-16T19:06:47;5.25;4.25;1.00
73832;PMS7003;62179;48.444;-4.464;2022-10-16T19:09:14;5.25;4.00;2.00
73832;PMS7003;62179;48.444;-4.464;2022-10-16T19:11:41;3.25;2.50;2.00
73832;PMS7003;62179;48.444;-4.464;2022-10-16T19:14:11;3.75;2.25;1.00
73832;PMS7003;62179;48.444;-4.464;2022-10-16T19:16:38;4.75;2.75;1.00
73832;PMS7003;62179;48.444;-4.464;2022-10-16T19:19:06;5.25;3.00;1.75
73832;PMS7003;62179;48.444;-4.464;2022-10-16T19:21:34;6.75;5.00;1.50
73832;PMS7003;62179;48.444;-4.464;2022-10-16T19:24:04;3.00;3.00;1.75
73832;PMS7003;62179;48.444;-4.464;2022-10-16T19:26:30;6.25;3.00;1.00
73832;PMS7003;62179;48.444;-4.464;2022-10-16T19:28:57;8.00;5.00;3.00
73832;PMS7003;62179;48.444;-4.464;2022-10-16T19:31:25;3.00;3.00;1.00
73832;PMS7003;62179;48.444;-4.464;2022-10-16T19:33:53;5.00;3.00;1.00
73832;PMS7003;62179;48.444;-4.464;2022-10-16T19:36:24;6.00;2.00;1.00
73832;PMS7003;62179;48.444;-4.464;2022-10-16T19:38:55;4.25;3.25;1.75
73832;PMS7003;62179;48.444;-4.464;2022-10-16T19:41:23;2.50;2.00;1.00
73832;PMS7003;62179;48.444;-4.464;2022-10-16T19:43:49;5.75;2.00;1.00
73832;PMS7003;62179;48.444;-4.464;2022-10-16T19:46:16;3.75;2.25;1.00
73832;PMS7003;62179;48.444;-4.464;2022-10-16T19:48:46;3.00;3.00;2.00
73832;PMS7003;62179;48.444;-4.464;2022-10-16T19:51:17;4.75;2.50;0.50
73832;PMS7003;62179;48.444;-4.464;2022-10-16T19:53:45;6.00;3.75;2.00
73832;PMS7003;62179;48.444;-4.464;2022-10-16T19:56:14;6.25;5.25;2.50
73832;PMS7003;62179;48.444;-4.464;2022-10-16T19:58:42;6.50;5.00;2.50
73832;PMS7003;62179;48.444;-4.464;2022-10-16T20:01:08;3.25;3.25;2.00
73832;PMS7003;62179;48.444;-4.464;2022-10-16T20:03:34;4.75;2.50;1.50
73832;PMS7003;62179;48.444;-4.464;2022-10-16T20:06:00;3.00;3.00;1.75
73832;PMS7003;62179;48.444;-4.464;2022-10-16T20:08:30;3.00;2.00;1.00
73832;PMS7003;62179;48.444;-4.464;2022-10-16T20:10:57;2.00;1.75;1.00
73832;PMS7003;62179;48.444;-4.464;2022-10-16T20:13:22;3.25;1.75;1.00
73832;PMS7003;62179;48.444;-4.464;2022-10-16T20:15:48;4.75;4.25;2.75
73832;PMS7003;62179;48.444;-4.464;2022-10-16T20:18:14;3.50;3.50;1.00
73832;PMS7003;62179;48.444;-4.464;2022-10-16T20:20:40;3.00;1.00;1.00
73832;PMS7003;62179;48.444;-4.464;2022-10-16T20:23:07;4.25;3.00;1.00
73832;PMS7003;62179;48.444;-4.464;2022-10-16T20:25:37;5.00;2.75;2.00
73832;PMS7003;62179;48.444;-4.464;2022-10-16T20:28:05;4.00;3.25;1.00
73832;PMS7003;62179;48.444;-4.464;2022-10-16T20:30:38;2.75;2.00;1.00
73832;PMS7003;62179;48.444;-4.464;2022-10-16T20:33:05;3.75;2.25;1.00
73832;PMS7003;62179;48.444;-4.464;2022-10-16T20:35:37;4.75;2.75;1.00
73832;PMS7003;62179;48.444;-4.464;2022-10-16T20:38:22;3.50;2.25;1.00
73832;PMS7003;62179;48.444;-4.464;2022-10-16T20:40:50;3.75;2.50;1.00
73832;PMS7003;62179;48.444;-4.464;2022-10-16T20:43:16;5.00;4.00;2.00
73832;PMS7003;62179;48.444;-4.464;2022-10-16T20:45:46;4.00;2.25;1.00
73832;PMS7003;62179;48.444;-4.464;2022-10-16T20:48:12;3.50;3.50;1.25
73832;PMS7003;62179;48.444;-4.464;2022-10-16T20:50:38;3.00;2.00;0.75
73832;PMS7003;62179;48.444;-4.464;2022-10-16T20:53:05;3.00;1.75;0.25
73832;PMS7003;62179;48.444;-4.464;2022-10-16T20:55:33;4.00;1.00;1.00
73832;PMS7003;62179;48.444;-4.464;2022-10-16T20:57:59;3.00;2.00;1.00
73832;PMS7003;62179;48.444;-4.464;2022-10-16T21:00:25;1.00;0.00;0.00
73832;PMS7003;62179;48.444;-4.464;2022-10-16T21:02:50;2.50;2.25;1.00
73832;PMS7003;62179;48.444;-4.464;2022-10-16T21:05:17;2.25;0.75;0.50
73832;PMS7003;62179;48.444;-4.464;2022-10-16T21:07:43;10.00;2.00;1.00
73832;PMS7003;62179;48.444;-4.464;2022-10-16T21:10:09;1.50;1.50;1.00
73832;PMS7003;62179;48.444;-4.464;2022-10-16T21:12:34;2.25;2.00;1.00
73832;PMS7003;62179;48.444;-4.464;2022-10-16T21:15:00;1.50;1.00;0.00
73832;PMS7003;62179;48.444;-4.464;2022-10-16T21:17:25;2.25;1.00;0.00
73832;PMS7003;62179;48.444;-4.464;2022-10-16T21:19:51;5.00;3.00;2.00
73832;PMS7003;62179;48.444;-4.464;2022-10-16T21:22:16;2.00;1.75;1.00
73832;PMS7003;62179;48.444;-4.464;2022-10-16T21:24:41;1.75;1.00;1.00
73832;PMS7003;62179;48.444;-4.464;2022-10-16T21:27:07;1.25;1.25;1.00
73832;PMS7003;62179;48.444;-4.464;2022-10-16T21:29:32;2.00;1.75;1.00
73832;PMS7003;62179;48.444;-4.464;2022-10-16T21:31:58;4.75;4.00;1.25
73832;PMS7003;62179;48.444;-4.464;2022-10-16T21:34:23;2.50;2.00;0.00
73832;PMS7003;62179;48.444;-4.464;2022-10-16T21:36:49;2.00;2.00;0.00
73832;PMS7003;62179;48.444;-4.464;2022-10-16T21:39:16;3.00;1.00;0.00
73832;PMS7003;62179;48.444;-4.464;2022-10-16T21:41:43;4.75;1.75;1.00
73832;PMS7003;62179;48.444;-4.464;2022-10-16T21:44:11;3.00;2.00;1.00
73832;PMS7003;62179;48.444;-4.464;2022-10-16T21:46:38;4.00;2.00;1.00
73832;PMS7003;62179;48.444;-4.464;2022-10-16T21:49:05;4.25;3.25;1.00
73832;PMS7003;62179;48.444;-4.464;2022-10-16T21:51:35;3.25;3.00;1.00
73832;PMS7003;62179;48.444;-4.464;2022-10-16T21:54:02;5.00;3.00;1.00
73832;PMS7003;62179;48.444;-4.464;2022-10-16T21:56:29;2.75;1.50;0.75
73832;PMS7003;62179;48.444;-4.464;2022-10-16T21:58:55;1.50;1.50;0.50
73832;PMS7003;62179;48.444;-4.464;2022-10-16T22:01:21;5.25;2.50;1.00
73832;PMS7003;62179;48.444;-4.464;2022-10-16T22:03:49;4.00;2.00;0.75
73832;PMS7003;62179;48.444;-4.464;2022-10-16T22:06:16;4.25;2.75;1.50
73832;PMS7003;62179;48.444;-4.464;2022-10-16T22:08:48;2.75;2.75;1.00
73832;PMS7003;62179;48.444;-4.464;2022-10-16T22:11:17;4.25;3.00;1.00
73832;PMS7003;62179;48.444;-4.464;2022-10-16T22:13:47;3.00;1.00;0.75
73832;PMS7003;62179;48.444;-4.464;2022-10-16T22:16:14;1.00;1.00;0.00
73832;PMS7003;62179;48.444;-4.464;2022-10-16T22:18:39;7.25;2.50;0.00
73832;PMS7003;62179;48.444;-4.464;2022-10-16T22:21:07;4.00;2.50;1.00
73832;PMS7003;62179;48.444;-4.464;2022-10-16T22:23:34;4.75;2.75;1.00
73832;PMS7003;62179;48.444;-4.464;2022-10-16T22:26:01;2.50;2.50;1.00
73832;PMS7003;62179;48.444;-4.464;2022-10-16T22:28:28;5.50;2.50;1.00
73832;PMS7003;62179;48.444;-4.464;2022-10-16T22:30:53;4.50;2.50;1.00
73832;PMS7003;62179;48.444;-4.464;2022-10-16T22:33:19;3.00;2.50;1.00
73832;PMS7003;62179;48.444;-4.464;2022-10-16T22:35:46;2.75;2.00;1.00
73832;PMS7003;62179;48.444;-4.464;2022-10-16T22:38:11;3.75;2.00;1.00
73832;PMS7003;62179;48.444;-4.464;2022-10-16T22:40:38;3.00;2.00;1.00
73832;PMS7003;62179;48.444;-4.464;2022-10-16T22:43:06;2.00;1.75;0.75
73832;PMS7003;62179;48.444;-4.464;2022-10-16T22:45:32;1.50;1.00;0.75
73832;PMS7003;62179;48.444;-4.464;2022-10-16T22:48:00;3.75;1.00;0.00
73832;PMS7003;62179;48.444;-4.464;2022-10-16T22:50:27;4.00;3.25;1.00
73832;PMS7003;62179;48.444;-4.464;2022-10-16T22:52:53;2.00;2.00;1.00
